createdAt,value
2019-05-10T00:00:14.751Z,11.20
2019-05-10T00:03:01.300Z,11.20
2019-05-10T00:05:48.043Z,11.20
2019-05-10T00:08:34.587Z,11.20
2019-05-10T00:11:04.989Z,11.20
2019-05-10T00:13:36.155Z,11.10
2019-05-10T00:16:04.759Z,11.10
2019-05-10T00:18:33.192Z,10.90
2019-05-10T00:21:02.347Z,10.90
2019-05-10T00:23:30.838Z,10.90
2019-05-10T00:25:59.265Z,10.90
2019-05-10T00:28:27.695Z,10.90
2019-05-10T00:30:56.395Z,10.90
2019-05-10T00:33:25.137Z,10.90
2019-05-10T00:35:53.572Z,11.00
2019-05-10T00:38:22.174Z,11.00
2019-05-10T00:40:50.702Z,11.00
2019-05-10T00:43:19.191Z,11.00
2019-05-10T00:45:47.629Z,11.10
2019-05-10T00:48:16.130Z,11.10
2019-05-10T00:50:44.599Z,11.10
2019-05-10T00:53:13.335Z,11.10
2019-05-10T00:55:41.897Z,11.10
2019-05-10T00:58:10.618Z,11.00
2019-05-10T01:00:39.573Z,11.00
2019-05-10T01:03:08.001Z,11.00
2019-05-10T01:05:36.873Z,11.10
2019-05-10T01:08:05.736Z,11.10
2019-05-10T01:10:34.178Z,11.10
2019-05-10T01:13:02.607Z,11.10
2019-05-10T01:15:31.374Z,11.10
2019-05-10T01:18:00.110Z,11.10
2019-05-10T01:20:28.549Z,11.10
2019-05-10T01:22:56.979Z,11.10
2019-05-10T01:25:34.436Z,11.10
2019-05-10T01:27:55.657Z,11.20
2019-05-10T01:30:24.125Z,11.20
2019-05-10T01:32:53.177Z,11.20
2019-05-10T01:35:21.837Z,11.20
2019-05-10T01:37:50.260Z,11.20
2019-05-10T01:40:18.961Z,11.20
2019-05-10T01:42:47.745Z,11.10
2019-05-10T01:45:16.254Z,11.10
2019-05-10T01:47:44.675Z,11.10
2019-05-10T01:50:13.184Z,11.00
2019-05-10T01:52:41.783Z,11.00
2019-05-10T01:55:10.307Z,10.90
2019-05-10T01:57:38.743Z,10.90
2019-05-10T02:00:08.872Z,11.00
2019-05-10T02:02:37.330Z,11.00
2019-05-10T02:05:06.820Z,11.00
2019-05-10T02:07:35.303Z,11.00
2019-05-10T02:10:06.089Z,11.00
2019-05-10T02:12:34.612Z,11.00
2019-05-10T02:15:03.411Z,10.90
2019-05-10T02:17:31.845Z,10.90
2019-05-10T02:20:00.339Z,10.80
2019-05-10T02:22:28.961Z,10.80
2019-05-10T02:24:57.409Z,10.80
2019-05-10T02:27:25.858Z,10.80
2019-05-10T02:29:54.518Z,10.80
2019-05-10T02:32:22.962Z,10.80
2019-05-10T02:34:51.469Z,10.80
2019-05-10T02:37:19.903Z,10.80
2019-05-10T02:39:48.353Z,10.80
2019-05-10T02:42:17.636Z,10.80
2019-05-10T02:44:46.112Z,10.90
2019-05-10T02:47:14.533Z,10.90
2019-05-10T02:49:42.977Z,10.90
2019-05-10T02:52:11.488Z,10.90
2019-05-10T02:54:40.310Z,10.90
2019-05-10T02:57:11.075Z,10.90
2019-05-10T02:59:40.834Z,10.90
2019-05-10T03:02:09.578Z,10.90
2019-05-10T03:04:38.028Z,10.90
2019-05-10T03:07:07.072Z,10.80
2019-05-10T03:09:35.658Z,10.80
2019-05-10T03:12:16.137Z,10.70
2019-05-10T03:14:47.430Z,10.70
2019-05-10T03:17:18.396Z,10.70
2019-05-10T03:19:49.863Z,10.70
2019-05-10T03:22:19.188Z,10.80
2019-05-10T03:24:47.881Z,10.80
2019-05-10T03:27:16.636Z,10.80
2019-05-10T03:29:46.245Z,10.90
2019-05-10T03:32:14.686Z,11.00
2019-05-10T03:34:43.182Z,10.90
2019-05-10T03:37:12.589Z,10.90
2019-05-10T03:39:41.038Z,10.90
2019-05-10T03:42:09.642Z,10.80
2019-05-10T03:44:38.249Z,10.90
2019-05-10T03:47:07.019Z,10.90
2019-05-10T03:49:35.464Z,10.90
2019-05-10T03:52:04.278Z,10.90
2019-05-10T03:54:32.763Z,10.80
2019-05-10T03:57:12.781Z,10.80
2019-05-10T03:59:31.430Z,10.80
2019-05-10T04:01:59.972Z,10.80
2019-05-10T04:04:28.496Z,10.80
2019-05-10T04:06:56.924Z,10.90
2019-05-10T04:09:25.743Z,10.90
2019-05-10T04:11:54.261Z,11.00
2019-05-10T04:14:22.707Z,11.00
2019-05-10T04:16:51.135Z,11.00
2019-05-10T04:19:20.005Z,10.90
2019-05-10T04:21:48.489Z,11.00
2019-05-10T04:24:17.046Z,11.00
2019-05-10T04:26:45.700Z,11.00
2019-05-10T04:29:16.408Z,11.10
2019-05-10T04:31:45.078Z,11.10
2019-05-10T04:34:13.880Z,11.20
2019-05-10T04:36:42.572Z,11.20
2019-05-10T04:39:10.993Z,11.30
2019-05-10T04:41:39.687Z,11.30
2019-05-10T04:44:08.371Z,11.40
2019-05-10T04:46:37.100Z,11.50
2019-05-10T04:49:05.755Z,11.60
2019-05-10T04:51:34.220Z,11.40
2019-05-10T04:54:03.512Z,11.40
2019-05-10T04:56:32.501Z,11.40
2019-05-10T04:59:01.483Z,11.30
2019-05-10T05:01:29.937Z,11.30
2019-05-10T05:03:58.361Z,11.40
2019-05-10T05:06:27.200Z,11.30
2019-05-10T05:08:55.632Z,11.40
2019-05-10T05:11:24.938Z,11.40
2019-05-10T05:13:54.052Z,11.40
2019-05-10T05:16:22.560Z,11.30
2019-05-10T05:18:50.984Z,11.30
2019-05-10T05:21:19.802Z,11.30
2019-05-10T05:23:48.545Z,11.30
2019-05-10T05:26:17.004Z,11.30
2019-05-10T05:28:45.438Z,11.30
2019-05-10T05:31:14.179Z,11.40
2019-05-10T05:33:42.685Z,11.40
2019-05-10T05:36:11.131Z,11.50
2019-05-10T05:38:40.441Z,11.50
2019-05-10T05:41:09.992Z,11.50
2019-05-10T05:43:45.819Z,11.60
2019-05-10T05:46:08.687Z,11.60
2019-05-10T05:48:40.422Z,11.70
2019-05-10T05:51:07.682Z,11.70
2019-05-10T05:53:42.317Z,11.80
2019-05-10T05:56:12.806Z,11.70
2019-05-10T05:58:38.280Z,11.70
2019-05-10T06:01:07.133Z,11.70
2019-05-10T06:03:35.554Z,11.70
2019-05-10T06:06:15.355Z,11.70
2019-05-10T06:08:34.558Z,11.60
2019-05-10T06:11:03.079Z,11.60
2019-05-10T06:13:32.567Z,11.50
2019-05-10T06:16:06.399Z,11.60
2019-05-10T06:18:31.555Z,11.60
2019-05-10T06:20:59.985Z,11.70
2019-05-10T06:23:29.181Z,11.70
2019-05-10T06:25:58.888Z,11.80
2019-05-10T06:28:56.287Z,11.90
2019-05-10T06:30:57.579Z,12.00
2019-05-10T06:33:26.021Z,12.10
2019-05-10T06:35:54.439Z,12.10
2019-05-10T06:38:22.893Z,12.20
2019-05-10T06:40:51.337Z,12.30
2019-05-10T06:43:19.856Z,12.40
2019-05-10T06:45:52.538Z,12.40
2019-05-10T06:48:25.789Z,12.40
2019-05-10T06:50:48.953Z,12.40
2019-05-10T06:53:17.473Z,12.50
2019-05-10T06:55:46.067Z,12.60
2019-05-10T06:58:14.565Z,12.70
2019-05-10T07:00:44.860Z,12.80
2019-05-10T07:03:13.294Z,12.90
2019-05-10T07:05:41.802Z,13.00
2019-05-10T07:08:19.650Z,13.10
2019-05-10T07:10:40.406Z,13.20
2019-05-10T07:13:08.908Z,13.30
2019-05-10T07:15:42.355Z,13.50
2019-05-10T07:18:07.870Z,13.60
2019-05-10T07:20:36.304Z,13.80
2019-05-10T07:23:06.177Z,13.90
2019-05-10T07:25:37.906Z,14.00
2019-05-10T07:28:09.401Z,14.00
2019-05-10T07:30:40.533Z,14.10
2019-05-10T07:33:07.385Z,14.10
2019-05-10T07:35:37.033Z,14.20
2019-05-10T07:38:06.229Z,14.20
2019-05-10T07:40:34.914Z,14.30
2019-05-10T07:43:03.911Z,14.40
2019-05-10T07:45:32.337Z,14.50
2019-05-10T07:48:02.393Z,14.50
2019-05-10T07:50:30.993Z,14.50
2019-05-10T07:52:59.470Z,14.60
2019-05-10T07:55:29.856Z,14.70
2019-05-10T07:57:58.997Z,14.80
2019-05-10T08:00:28.502Z,14.80
2019-05-10T08:03:07.525Z,14.80
2019-05-10T08:05:29.215Z,14.70
2019-05-10T08:07:58.819Z,14.70
2019-05-10T08:10:28.991Z,14.70
2019-05-10T08:12:59.478Z,14.80
2019-05-10T08:15:30.519Z,15.00
2019-05-10T08:17:58.732Z,15.10
2019-05-10T08:20:41.405Z,15.20
2019-05-10T08:22:57.754Z,15.10
2019-05-10T08:25:29.236Z,15.20
2019-05-10T08:27:56.563Z,15.30
2019-05-10T08:30:33.780Z,15.30
2019-05-10T08:33:09.306Z,15.30
2019-05-10T08:35:33.704Z,15.40
2019-05-10T08:38:04.632Z,15.50
2019-05-10T08:40:36.940Z,15.60
2019-05-10T08:43:07.398Z,15.70
2019-05-10T08:45:38.505Z,15.90
2019-05-10T08:48:06.874Z,16.00
2019-05-10T08:50:49.258Z,16.20
2019-05-10T08:53:11.164Z,16.20
2019-05-10T08:55:35.596Z,16.40
2019-05-10T08:58:04.684Z,16.40
2019-05-10T09:00:45.156Z,16.50
2019-05-10T09:03:09.593Z,16.50
2019-05-10T09:05:34.572Z,17.00
2019-05-10T09:08:05.893Z,17.30
2019-05-10T09:10:33.941Z,17.30
2019-05-10T09:13:03.309Z,17.20
2019-05-10T09:15:33.213Z,17.00
2019-05-10T09:18:04.306Z,16.70
2019-05-10T09:20:32.074Z,16.60
2019-05-10T09:23:02.384Z,16.70
2019-05-10T09:25:33.277Z,16.60
2019-05-10T09:28:11.585Z,16.60
2019-05-10T09:30:35.405Z,16.70
2019-05-10T09:33:08.581Z,16.60
2019-05-10T09:35:39.031Z,17.20
2019-05-10T09:38:04.907Z,17.70
2019-05-10T09:40:33.429Z,17.90
2019-05-10T09:43:05.148Z,18.60
2019-05-10T09:45:32.574Z,19.10
2019-05-10T09:48:02.473Z,19.50
2019-05-10T09:50:41.325Z,19.50
2019-05-10T09:53:01.522Z,19.00
2019-05-10T09:55:30.116Z,18.50
2019-05-10T09:57:58.629Z,17.90
2019-05-10T10:00:32.420Z,17.90
2019-05-10T10:03:01.842Z,18.00
2019-05-10T10:05:30.526Z,18.00
2019-05-10T10:08:03.801Z,17.80
2019-05-10T10:10:32.437Z,17.70
2019-05-10T10:13:10.894Z,17.50
2019-05-10T10:15:34.309Z,17.00
2019-05-10T10:18:00.664Z,16.30
2019-05-10T10:20:30.020Z,15.90
2019-05-10T10:22:58.969Z,15.50
2019-05-10T10:25:29.921Z,15.30
2019-05-10T10:27:57.926Z,15.20
2019-05-10T10:30:27.233Z,15.20
2019-05-10T10:32:58.100Z,15.50
2019-05-10T10:35:29.715Z,15.80
2019-05-10T10:37:57.476Z,16.10
2019-05-10T10:40:27.961Z,16.40
2019-05-10T10:42:57.730Z,17.00
2019-05-10T10:45:27.696Z,17.70
2019-05-10T10:47:57.344Z,18.30
2019-05-10T10:50:27.543Z,18.20
2019-05-10T10:52:57.521Z,18.10
2019-05-10T10:55:30.513Z,17.70
2019-05-10T10:57:57.667Z,17.10
2019-05-10T11:00:34.483Z,16.80
2019-05-10T11:03:04.381Z,16.40
2019-05-10T11:05:33.022Z,16.30
2019-05-10T11:08:01.455Z,16.40
2019-05-10T11:10:31.465Z,16.50
2019-05-10T11:13:02.946Z,16.60
2019-05-10T11:15:35.759Z,16.60
2019-05-10T11:18:01.064Z,16.60
2019-05-10T11:20:31.521Z,16.60
2019-05-10T11:22:59.751Z,16.60
2019-05-10T11:25:28.265Z,16.80
2019-05-10T11:28:00.963Z,17.20
2019-05-10T11:30:27.399Z,17.20
2019-05-10T11:32:55.833Z,17.10
2019-05-10T11:35:30.490Z,16.80
2019-05-10T11:37:54.794Z,16.30
2019-05-10T11:40:30.796Z,15.60
2019-05-10T11:42:53.882Z,15.40
2019-05-10T11:45:26.091Z,15.20
2019-05-10T11:47:59.141Z,15.10
2019-05-10T11:50:30.869Z,15.10
2019-05-10T11:52:54.901Z,15.10
2019-05-10T11:55:23.428Z,15.40
2019-05-10T11:58:02.043Z,15.60
2019-05-10T12:03:06.995Z,16.30
2019-05-10T12:05:26.365Z,16.60
2019-05-10T12:07:54.759Z,17.00
2019-05-10T12:10:25.557Z,17.10
2019-05-10T12:13:08.516Z,17.40
2019-05-10T12:15:25.767Z,17.80
2019-05-10T12:17:59.287Z,18.20
2019-05-10T12:20:39.522Z,18.20
2019-05-10T12:22:55.395Z,18.20
2019-05-10T12:25:42.693Z,18.10
2019-05-10T12:26:20.249Z,15.90
2019-05-10T12:27:54.024Z,18.10
2019-05-10T12:30:22.586Z,18.10
2019-05-10T12:32:56.032Z,17.90
2019-05-10T12:35:21.569Z,17.90
2019-05-10T12:38:11.359Z,17.80
2019-05-10T12:40:41.764Z,17.70
2019-05-10T12:43:10.985Z,17.70
2019-05-10T12:45:41.815Z,17.70
2019-05-10T12:48:09.945Z,17.80
2019-05-10T12:50:38.615Z,17.90
2019-05-10T12:53:13.885Z,17.90
2019-05-10T12:55:37.460Z,17.80
2019-05-10T12:58:05.906Z,17.70
2019-05-10T13:00:34.408Z,17.90
2019-05-10T13:03:12.248Z,17.80
2019-05-10T13:05:34.159Z,17.90
2019-05-10T13:08:03.050Z,18.30
2019-05-10T13:10:31.879Z,18.80
2019-05-10T13:13:01.898Z,19.10
2019-05-10T13:15:31.247Z,18.70
2019-05-10T13:18:00.479Z,18.20
2019-05-10T13:20:30.870Z,17.70
2019-05-10T13:22:59.896Z,17.10
2019-05-10T13:25:28.330Z,16.60
2019-05-10T13:27:56.768Z,16.10
2019-05-10T13:30:28.173Z,15.80
2019-05-10T13:32:58.586Z,15.80
2019-05-10T13:35:25.754Z,15.70
2019-05-10T13:37:56.918Z,15.60
2019-05-10T13:40:24.846Z,15.60
2019-05-10T13:42:53.292Z,15.60
2019-05-10T13:45:22.002Z,15.50
2019-05-10T13:47:50.445Z,15.60
2019-05-10T13:50:18.948Z,15.70
2019-05-10T13:52:47.414Z,15.80
2019-05-10T13:55:15.900Z,16.10
2019-05-10T13:57:44.341Z,16.30
2019-05-10T14:00:13.213Z,16.40
2019-05-10T14:02:41.648Z,16.50
2019-05-10T14:05:11.814Z,16.30
2019-05-10T14:07:49.754Z,16.30
2019-05-10T14:10:11.273Z,16.50
2019-05-10T14:12:39.721Z,16.60
2019-05-10T14:15:12.935Z,16.70
2019-05-10T14:17:38.973Z,16.80
2019-05-10T14:20:19.523Z,16.80
2019-05-10T14:22:38.904Z,16.70
2019-05-10T14:25:07.778Z,16.70
2019-05-10T14:27:38.635Z,16.90
2019-05-10T14:30:13.599Z,16.90
2019-05-10T14:32:38.224Z,17.00
2019-05-10T14:35:07.895Z,17.20
2019-05-10T14:37:36.336Z,17.20
2019-05-10T14:40:06.858Z,17.10
2019-05-10T14:42:35.294Z,17.00
2019-05-10T14:45:05.479Z,17.00
2019-05-10T14:47:46.343Z,17.10
2019-05-10T14:50:05.303Z,17.30
2019-05-10T14:52:33.734Z,17.20
2019-05-10T14:55:02.173Z,17.40
2019-05-10T14:57:30.855Z,17.50
2019-05-10T14:59:59.296Z,17.50
2019-05-10T15:02:27.978Z,17.60
2019-05-10T15:04:56.672Z,17.60
2019-05-10T15:07:25.095Z,17.60
2019-05-10T15:09:54.275Z,17.60
2019-05-10T15:12:24.024Z,17.70
2019-05-10T15:14:52.468Z,17.90
2019-05-10T15:17:21.150Z,18.10
2019-05-10T15:19:57.621Z,18.00
2019-05-10T15:22:23.145Z,18.20
2019-05-10T15:24:50.168Z,18.40
2019-05-10T15:27:21.903Z,18.60
2019-05-10T15:29:49.071Z,18.60
2019-05-10T15:32:17.490Z,18.40
2019-05-10T15:35:04.382Z,18.30
2019-05-10T15:37:17.805Z,18.10
2019-05-10T15:39:46.456Z,18.00
2019-05-10T15:42:15.129Z,17.80
2019-05-10T15:44:43.580Z,17.60
2019-05-10T15:47:14.703Z,17.40
2019-05-10T15:49:42.160Z,17.40
2019-05-10T15:54:44.734Z,17.40
2019-05-10T15:57:14.425Z,17.40
2019-05-10T15:59:23.787Z,17.40
2019-05-10T15:59:41.133Z,17.30
2019-05-10T16:02:09.637Z,17.30
2019-05-10T16:04:38.186Z,17.20
2019-05-10T16:07:09.302Z,17.20
2019-05-10T16:09:36.879Z,17.00
2019-05-10T16:12:08.604Z,16.90
2019-05-10T16:14:39.237Z,16.80
2019-05-10T16:17:10.414Z,16.60
2019-05-10T16:19:36.336Z,16.40
2019-05-10T16:22:04.761Z,16.20
2019-05-10T16:24:33.214Z,16.00
2019-05-10T16:27:01.939Z,15.80
2019-05-10T16:29:33.645Z,15.60
2019-05-10T16:32:00.608Z,15.40
2019-05-10T16:34:32.245Z,15.40
2019-05-10T16:36:59.213Z,15.40
2019-05-10T16:39:27.661Z,15.40
2019-05-10T16:41:56.079Z,15.60
2019-05-10T16:44:24.528Z,15.80
2019-05-10T16:46:52.960Z,16.00
2019-05-10T16:49:21.389Z,15.90
2019-05-10T16:51:50.088Z,15.80
2019-05-10T16:54:25.079Z,15.80
2019-05-10T16:56:51.729Z,15.80
2019-05-10T16:59:24.247Z,15.70
2019-05-10T17:01:50.390Z,15.80
2019-05-10T17:04:18.808Z,15.80
2019-05-10T17:06:47.262Z,15.80
2019-05-10T17:09:18.253Z,15.60
2019-05-10T17:11:46.867Z,15.50
2019-05-10T17:14:18.034Z,15.30
2019-05-10T17:16:50.145Z,15.20
2019-05-10T17:19:16.592Z,15.10
2019-05-10T17:21:45.045Z,15.10
2019-05-10T17:24:13.473Z,15.00
2019-05-10T17:26:42.005Z,15.00
2019-05-10T17:29:12.495Z,15.10
2019-05-10T17:31:45.539Z,15.20
2019-05-10T17:34:10.742Z,15.20
2019-05-10T17:36:39.445Z,15.20
2019-05-10T17:39:08.125Z,15.30
2019-05-10T17:41:36.573Z,15.20
2019-05-10T17:44:05.267Z,15.10
2019-05-10T17:46:33.717Z,15.00
2019-05-10T17:49:02.149Z,14.80
2019-05-10T17:51:30.591Z,14.70
2019-05-10T17:54:01.322Z,14.50
2019-05-10T17:56:32.728Z,14.50
2019-05-10T17:58:59.842Z,14.40
2019-05-10T18:01:28.282Z,14.40
2019-05-10T18:03:56.707Z,14.30
2019-05-10T18:06:25.175Z,14.30
2019-05-10T18:08:53.643Z,14.20
2019-05-10T18:11:22.345Z,14.20
2019-05-10T18:13:51.023Z,14.10
2019-05-10T18:16:19.471Z,14.00
2019-05-10T18:18:48.463Z,14.00
2019-05-10T18:21:22.176Z,13.90
2019-05-10T18:23:47.532Z,13.80
2019-05-10T18:26:15.967Z,13.70
2019-05-10T18:28:44.639Z,13.70
2019-05-10T18:31:13.085Z,13.50
2019-05-10T18:33:44.869Z,13.50
2019-05-10T18:36:11.667Z,13.40
2019-05-10T18:38:40.079Z,13.40
2019-05-10T18:41:10.006Z,13.40
2019-05-10T18:43:40.642Z,13.30
2019-05-10T18:46:09.227Z,13.20
2019-05-10T18:48:37.657Z,13.10
2019-05-10T18:51:06.113Z,13.10
2019-05-10T18:53:34.542Z,13.00
2019-05-10T18:56:02.993Z,12.90
2019-05-10T18:58:31.666Z,12.90
2019-05-10T19:01:02.096Z,12.90
2019-05-10T19:03:33.888Z,12.90
2019-05-10T19:06:04.041Z,12.80
2019-05-10T19:08:31.205Z,12.70
2019-05-10T19:10:59.653Z,12.60
2019-05-10T19:13:32.634Z,12.60
2019-05-10T19:15:58.748Z,12.60
2019-05-10T19:18:27.618Z,12.50
2019-05-10T19:20:56.340Z,12.50
2019-05-10T19:23:24.789Z,12.40
2019-05-10T19:25:53.882Z,12.40
2019-05-10T19:28:26.732Z,12.40
2019-05-10T19:30:58.232Z,12.30
2019-05-10T19:33:22.899Z,12.30
2019-05-10T19:35:51.390Z,12.20
2019-05-10T19:38:19.825Z,12.20
2019-05-10T19:40:48.257Z,12.10
2019-05-10T19:43:21.598Z,12.10
2019-05-10T19:45:51.077Z,12.10
2019-05-10T19:48:17.231Z,12.10
2019-05-10T19:50:45.648Z,12.00
2019-05-10T19:53:14.101Z,12.00
2019-05-10T19:55:42.519Z,11.90
2019-05-10T19:58:10.973Z,11.80
2019-05-10T20:00:39.470Z,11.70
2019-05-10T20:03:07.914Z,11.70
2019-05-10T20:05:36.359Z,11.70
2019-05-10T20:08:04.817Z,11.70
2019-05-10T20:10:33.245Z,11.70
2019-05-10T20:13:01.766Z,11.60
2019-05-10T20:15:30.195Z,11.60
2019-05-10T20:17:58.641Z,11.60
2019-05-10T20:20:27.157Z,11.50
2019-05-10T20:22:55.648Z,11.50
2019-05-10T20:25:24.097Z,11.50
2019-05-10T20:27:52.524Z,11.40
2019-05-10T20:30:21.310Z,11.40
2019-05-10T20:32:50.062Z,11.40
2019-05-10T20:35:18.761Z,11.30
2019-05-10T20:38:00.820Z,11.30
2019-05-10T20:40:17.970Z,11.30
2019-05-10T20:42:46.488Z,11.30
2019-05-10T20:45:14.941Z,11.30
2019-05-10T20:47:43.429Z,11.40
2019-05-10T20:50:12.413Z,11.40
2019-05-10T20:52:40.834Z,11.40
2019-05-10T20:55:09.760Z,11.40
2019-05-10T20:57:38.173Z,11.40
2019-05-10T21:00:07.044Z,11.40
2019-05-10T21:02:35.513Z,11.40
2019-05-10T21:05:06.426Z,11.40
2019-05-10T21:07:34.900Z,11.40
2019-05-10T21:10:04.079Z,11.30
2019-05-10T21:12:32.774Z,11.30
2019-05-10T21:15:01.220Z,11.30
2019-05-10T21:17:29.915Z,11.30
2019-05-10T21:19:58.834Z,11.30
2019-05-10T21:22:27.260Z,11.30
2019-05-10T21:24:55.708Z,11.20
2019-05-10T21:27:24.150Z,11.20
2019-05-10T21:29:52.592Z,11.20
2019-05-10T21:32:21.025Z,11.20
2019-05-10T21:34:49.542Z,11.10
2019-05-10T21:37:18.031Z,11.10
2019-05-10T21:39:46.482Z,11.20
2019-05-10T21:42:14.911Z,11.20
2019-05-10T21:44:43.418Z,11.20
2019-05-10T21:47:11.940Z,11.20
2019-05-10T21:49:40.687Z,11.20
2019-05-10T21:52:09.125Z,11.20
2019-05-10T21:54:37.577Z,11.20
2019-05-10T21:57:06.012Z,11.20
2019-05-10T21:59:34.527Z,11.10
2019-05-10T22:02:02.957Z,11.10
2019-05-10T22:04:31.473Z,11.00
2019-05-10T22:07:00.033Z,11.00
2019-05-10T22:09:28.533Z,11.00
2019-05-10T22:11:59.519Z,11.00
2019-05-10T22:14:27.398Z,11.00
2019-05-10T22:16:55.827Z,11.00
2019-05-10T22:19:24.276Z,10.90
2019-05-10T22:21:55.320Z,10.90
2019-05-10T22:24:22.946Z,10.90
2019-05-10T22:26:51.378Z,10.80
2019-05-10T22:29:19.838Z,10.70
2019-05-10T22:31:48.262Z,10.60
2019-05-10T22:34:16.706Z,10.60
2019-05-10T22:36:45.136Z,10.50
2019-05-10T22:39:13.743Z,10.40
2019-05-10T22:41:42.212Z,10.40
2019-05-10T22:44:10.982Z,10.30
2019-05-10T22:46:39.401Z,10.30
2019-05-10T22:49:07.918Z,10.20
2019-05-10T22:51:36.561Z,10.20
2019-05-10T22:54:05.123Z,10.10
2019-05-10T22:56:33.567Z,10.00
2019-05-10T22:59:02.341Z,10.00
2019-05-10T23:01:30.848Z,9.90
2019-05-10T23:03:59.286Z,9.90
2019-05-10T23:06:27.720Z,9.80
2019-05-10T23:08:56.429Z,9.70
2019-05-10T23:11:24.873Z,9.70
2019-05-10T23:13:53.303Z,9.60
2019-05-10T23:16:21.806Z,9.60
2019-05-10T23:18:50.575Z,9.50
2019-05-10T23:21:18.999Z,9.50
2019-05-10T23:23:47.678Z,9.50
2019-05-10T23:26:16.125Z,9.50
2019-05-10T23:28:44.701Z,9.40
2019-05-10T23:31:13.391Z,9.30
2019-05-10T23:33:41.806Z,9.30
2019-05-10T23:36:10.310Z,9.30
2019-05-10T23:38:39.173Z,9.30
2019-05-10T23:41:07.666Z,9.20
2019-05-10T23:43:36.097Z,9.20
2019-05-10T23:46:04.556Z,9.20
2019-05-10T23:48:32.982Z,9.10
2019-05-10T23:51:01.418Z,9.00
2019-05-10T23:53:29.832Z,9.00
2019-05-10T23:55:58.532Z,8.90
2019-05-10T23:58:27.223Z,8.90
